createdAt,value
2023-04-15T00:01:43.136Z,21.27
2023-04-15T00:04:11.143Z,21.57
2023-04-15T00:06:41.848Z,21.75
2023-04-15T00:09:10.156Z,21.55
2023-04-15T00:11:38.094Z,21.32
2023-04-15T00:14:08.561Z,21.32
2023-04-15T00:16:37.302Z,21.41
2023-04-15T00:19:05.216Z,21.38
2023-04-15T00:21:33.584Z,21.28
2023-04-15T00:24:01.999Z,21.55
2023-04-15T00:26:30.512Z,21.55
2023-04-15T00:29:02.509Z,21.37
2023-04-15T00:31:31.601Z,21.39
2023-04-15T00:34:00.206Z,21.64
2023-04-15T00:36:35.733Z,21.51
2023-04-15T00:39:04.009Z,21.70
2023-04-15T00:41:34.080Z,21.57
2023-04-15T00:44:08.609Z,21.83
2023-04-15T00:46:38.445Z,21.82
2023-04-15T00:49:07.026Z,21.44
2023-04-15T00:51:37.003Z,21.44
2023-04-15T00:54:06.072Z,22.01
2023-04-15T00:56:40.966Z,22.35
2023-04-15T00:59:09.440Z,21.73
2023-04-15T01:01:37.559Z,21.90
2023-04-15T01:04:07.183Z,22.13
2023-04-15T01:06:35.932Z,21.93
2023-04-15T01:09:04.283Z,21.60
2023-04-15T01:11:36.350Z,21.31
2023-04-15T01:14:04.653Z,21.19
2023-04-15T01:16:32.908Z,21.31
2023-04-15T01:19:01.339Z,21.67
2023-04-15T01:21:29.990Z,21.39
2023-04-15T01:23:58.527Z,21.42
2023-04-15T01:26:27.527Z,21.30
2023-04-15T01:28:56.515Z,20.90
2023-04-15T01:31:25.554Z,20.75
2023-04-15T01:33:56.086Z,20.88
2023-04-15T01:36:24.096Z,20.93
2023-04-15T01:39:00.574Z,21.27
2023-04-15T01:41:28.925Z,21.08
2023-04-15T01:43:57.588Z,21.21
2023-04-15T01:46:26.580Z,21.59
2023-04-15T01:48:54.854Z,21.47
2023-04-15T01:51:23.308Z,21.18
2023-04-15T01:53:52.469Z,21.30
2023-04-15T01:56:20.760Z,21.32
2023-04-15T01:58:49.074Z,20.50
2023-04-15T02:01:19.656Z,20.47
2023-04-15T02:03:48.811Z,20.69
2023-04-15T02:06:17.216Z,20.87
2023-04-15T02:08:45.411Z,20.84
2023-04-15T02:11:14.778Z,20.59
2023-04-15T02:13:42.823Z,20.74
2023-04-15T02:16:18.198Z,21.05
2023-04-15T02:18:54.387Z,21.39
2023-04-15T02:21:22.760Z,21.05
2023-04-15T02:23:52.290Z,20.76
2023-04-15T02:26:25.097Z,20.96
2023-04-15T02:28:55.642Z,21.10
2023-04-15T02:31:23.639Z,20.97
2023-04-15T02:33:51.770Z,20.98
2023-04-15T02:36:21.417Z,20.99
2023-04-15T02:38:49.401Z,21.00
2023-04-15T02:41:20.517Z,20.75
2023-04-15T02:43:48.525Z,20.66
2023-04-15T02:46:17.083Z,20.97
2023-04-15T02:48:46.588Z,21.16
2023-04-15T02:51:15.912Z,20.77
2023-04-15T02:53:43.940Z,20.85
2023-04-15T02:56:17.324Z,21.05
2023-04-15T02:58:50.720Z,20.88
2023-04-15T03:01:20.711Z,20.92
2023-04-15T03:03:48.938Z,20.88
2023-04-15T03:06:17.109Z,20.62
2023-04-15T03:08:45.775Z,20.44
2023-04-15T03:11:15.243Z,20.43
2023-04-15T03:13:45.158Z,20.51
2023-04-15T03:16:24.691Z,20.36
2023-04-15T03:18:52.995Z,20.35
2023-04-15T03:21:21.347Z,20.15
2023-04-15T03:23:49.801Z,20.27
2023-04-15T03:26:29.686Z,20.31
2023-04-15T03:29:00.823Z,20.89
2023-04-15T03:31:31.119Z,20.87
2023-04-15T03:33:59.200Z,20.83
2023-04-15T03:36:29.669Z,20.70
2023-04-15T03:38:59.289Z,20.80
2023-04-15T03:41:28.887Z,20.39
2023-04-15T03:43:59.277Z,20.48
2023-04-15T03:46:27.855Z,20.50
2023-04-15T03:48:56.299Z,20.64
2023-04-15T03:51:24.856Z,20.47
2023-04-15T03:53:52.807Z,20.57
2023-04-15T03:56:21.131Z,20.58
2023-04-15T03:58:51.597Z,20.46
2023-04-15T04:01:19.924Z,20.38
2023-04-15T04:03:48.415Z,20.28
2023-04-15T04:06:20.312Z,20.18
2023-04-15T04:08:49.731Z,20.14
2023-04-15T04:11:17.621Z,20.34
2023-04-15T04:13:48.181Z,20.41
2023-04-15T04:16:16.700Z,20.47
2023-04-15T04:18:45.144Z,20.56
2023-04-15T04:21:13.058Z,20.00
2023-04-15T04:23:43.669Z,20.21
2023-04-15T04:26:11.913Z,20.40
2023-04-15T04:28:40.766Z,20.46
2023-04-15T04:31:09.373Z,20.59
2023-04-15T04:33:39.072Z,20.61
2023-04-15T04:36:07.370Z,20.17
2023-04-15T04:38:41.463Z,20.25
2023-04-15T04:41:09.680Z,20.19
2023-04-15T04:43:37.744Z,20.03
2023-04-15T04:46:06.366Z,20.04
2023-04-15T04:48:36.463Z,20.30
2023-04-15T04:51:04.366Z,20.20
2023-04-15T04:53:33.852Z,20.35
2023-04-15T04:56:01.769Z,20.40
2023-04-15T04:58:30.138Z,20.62
2023-04-15T05:01:00.058Z,20.52
2023-04-15T05:03:28.237Z,20.48
2023-04-15T05:05:56.886Z,20.45
2023-04-15T05:08:29.598Z,20.68
2023-04-15T05:10:57.842Z,20.52
2023-04-15T05:13:25.850Z,20.25
2023-04-15T05:15:53.782Z,20.60
2023-04-15T05:18:23.520Z,20.54
2023-04-15T05:20:51.838Z,20.29
2023-04-15T05:23:20.027Z,20.83
2023-04-15T05:25:49.975Z,20.97
2023-04-15T05:28:18.366Z,20.80
2023-04-15T05:30:46.512Z,20.76
2023-04-15T05:33:16.047Z,21.25
2023-04-15T05:35:44.016Z,21.20
2023-04-15T05:38:11.936Z,20.98
2023-04-15T05:40:39.850Z,21.05
2023-04-15T05:43:08.427Z,21.03
2023-04-15T05:45:42.536Z,21.24
2023-04-15T05:48:10.920Z,21.09
2023-04-15T05:50:42.043Z,20.70
2023-04-15T05:53:13.654Z,21.30
2023-04-15T05:55:42.610Z,20.84
2023-04-15T05:58:10.526Z,20.82
2023-04-15T06:00:41.005Z,21.14
2023-04-15T06:03:11.953Z,21.00
2023-04-15T06:05:40.784Z,20.47
2023-04-15T06:08:09.140Z,21.02
2023-04-15T06:10:37.273Z,21.02
2023-04-15T06:13:05.931Z,21.24
2023-04-15T06:15:34.203Z,21.72
2023-04-15T06:18:02.398Z,21.90
2023-04-15T06:20:30.659Z,22.02
2023-04-15T06:22:59.116Z,21.89
2023-04-15T06:25:27.091Z,21.65
2023-04-15T06:27:56.263Z,21.36
2023-04-15T06:30:24.556Z,21.54
2023-04-15T06:32:53.663Z,21.45
2023-04-15T06:35:22.217Z,21.32
2023-04-15T06:37:50.366Z,21.18
2023-04-15T06:40:18.870Z,21.60
2023-04-15T06:42:46.802Z,21.47
2023-04-15T06:45:19.005Z,21.63
2023-04-15T06:47:49.617Z,21.53
2023-04-15T06:50:17.687Z,21.24
2023-04-15T06:52:50.190Z,21.08
2023-04-15T06:55:18.170Z,21.18
2023-04-15T06:57:46.504Z,21.22
2023-04-15T07:00:19.068Z,21.35
2023-04-15T07:02:47.317Z,21.32
2023-04-15T07:05:16.280Z,20.82
2023-04-15T07:07:47.434Z,20.76
2023-04-15T07:10:15.953Z,21.04
2023-04-15T07:12:44.178Z,21.23
2023-04-15T07:15:12.617Z,21.17
2023-04-15T07:17:44.593Z,21.31
2023-04-15T07:20:14.056Z,21.29
2023-04-15T07:22:42.179Z,21.40
2023-04-15T07:25:13.142Z,21.14
2023-04-15T07:27:41.779Z,21.50
2023-04-15T07:30:10.783Z,21.74
2023-04-15T07:32:38.697Z,21.76
2023-04-15T07:35:06.899Z,21.44
2023-04-15T07:37:35.755Z,21.25
2023-04-15T07:40:05.146Z,21.93
2023-04-15T07:42:37.398Z,22.00
2023-04-15T07:45:07.140Z,22.01
2023-04-15T07:47:35.238Z,21.97
2023-04-15T07:50:03.304Z,21.95
2023-04-15T07:52:39.225Z,21.99
2023-04-15T07:55:10.852Z,22.06
2023-04-15T07:57:40.096Z,21.89
2023-04-15T08:00:09.959Z,21.69
2023-04-15T08:02:44.482Z,21.69
2023-04-15T08:05:14.921Z,21.10
2023-04-15T08:07:50.119Z,21.57
2023-04-15T08:10:18.211Z,21.61
2023-04-15T08:12:49.437Z,21.42
2023-04-15T08:15:23.500Z,21.49
2023-04-15T08:17:53.320Z,21.55
2023-04-15T08:20:22.240Z,21.32
2023-04-15T08:22:52.252Z,21.11
2023-04-15T08:25:21.683Z,21.22
2023-04-15T08:27:56.354Z,21.53
2023-04-15T08:30:24.636Z,21.65
2023-04-15T08:32:52.847Z,21.48
2023-04-15T08:35:26.022Z,21.36
2023-04-15T08:37:54.849Z,21.46
2023-04-15T08:40:23.384Z,21.69
2023-04-15T08:42:51.684Z,21.59
2023-04-15T08:45:28.348Z,21.67
2023-04-15T08:47:56.916Z,22.08
2023-04-15T08:50:25.439Z,21.68
2023-04-15T08:52:56.599Z,21.28
2023-04-15T08:55:30.920Z,21.34
2023-04-15T08:57:59.130Z,21.54
2023-04-15T09:00:27.846Z,21.28
2023-04-15T09:02:59.406Z,21.09
2023-04-15T09:05:27.501Z,20.79
2023-04-15T09:07:56.065Z,20.74
2023-04-15T09:10:24.627Z,21.00
2023-04-15T09:12:53.647Z,21.34
2023-04-15T09:15:21.996Z,21.22
2023-04-15T09:17:49.953Z,20.42
2023-04-15T09:20:19.050Z,20.74
2023-04-15T09:22:48.185Z,21.05
2023-04-15T09:25:16.425Z,20.80
2023-04-15T09:27:51.201Z,21.35
2023-04-15T09:30:19.107Z,21.63
2023-04-15T09:33:02.268Z,21.30
2023-04-15T09:35:31.018Z,21.48
2023-04-15T09:38:03.777Z,21.25
2023-04-15T09:40:35.968Z,21.29
2023-04-15T09:43:05.351Z,21.20
2023-04-15T09:45:34.318Z,20.80
2023-04-15T09:48:26.905Z,21.07
2023-04-15T09:50:58.144Z,21.32
2023-04-15T09:53:26.085Z,21.67
2023-04-15T09:55:58.372Z,21.33
2023-04-15T09:58:30.802Z,21.67
2023-04-15T10:00:59.665Z,22.01
2023-04-15T10:03:32.475Z,21.78
2023-04-15T10:06:00.945Z,21.73
2023-04-15T10:08:32.869Z,21.74
2023-04-15T10:11:02.260Z,21.28
2023-04-15T10:13:36.691Z,19.94
2023-04-15T10:16:11.420Z,21.02
2023-04-15T10:18:42.939Z,21.41
2023-04-15T10:21:10.894Z,21.52
2023-04-15T10:23:39.280Z,21.78
2023-04-15T10:26:07.269Z,22.43
2023-04-15T10:31:35.135Z,17.53
2023-04-15T10:34:06.528Z,19.27
2023-04-15T10:36:34.487Z,19.47
2023-04-15T10:39:02.504Z,20.11
2023-04-15T10:41:31.430Z,20.08
2023-04-15T10:44:03.309Z,20.16
2023-04-15T10:46:44.745Z,20.08
2023-04-15T10:49:13.469Z,20.24
2023-04-15T10:51:44.952Z,20.04
2023-04-15T10:54:25.806Z,20.38
2023-04-15T10:57:00.144Z,20.32
2023-04-15T10:59:31.889Z,20.63
2023-04-15T11:02:04.087Z,20.42
2023-04-15T11:04:51.524Z,20.98
2023-04-15T11:07:44.871Z,21.19
2023-04-15T11:10:20.868Z,21.08
2023-04-15T11:12:54.442Z,20.86
2023-04-15T11:15:30.666Z,21.21
2023-04-15T11:17:59.566Z,20.46
2023-04-15T11:20:27.564Z,20.53
2023-04-15T11:23:11.948Z,21.06
2023-04-15T11:25:44.162Z,21.29
2023-04-15T11:28:13.223Z,21.37
2023-04-15T11:30:42.042Z,21.42
2023-04-15T11:33:12.356Z,21.54
2023-04-15T11:35:41.886Z,21.34
2023-04-15T11:38:12.079Z,21.03
2023-04-15T11:40:40.344Z,21.34
2023-04-15T11:43:39.666Z,21.67
2023-04-15T11:46:08.606Z,21.39
2023-04-15T11:48:36.799Z,21.46
2023-04-15T11:51:06.184Z,21.44
2023-04-15T11:53:47.410Z,21.31
2023-04-15T11:56:19.298Z,21.49
2023-04-15T11:58:47.560Z,20.83
2023-04-15T12:01:15.572Z,20.30
2023-04-15T12:03:45.898Z,20.69
2023-04-15T12:06:21.228Z,20.79
2023-04-15T12:08:57.178Z,20.55
2023-04-15T12:11:26.339Z,20.97
2023-04-15T12:13:56.785Z,20.88
2023-04-15T12:16:24.983Z,21.02
2023-04-15T12:18:55.979Z,21.25
2023-04-15T12:21:25.218Z,21.32
2023-04-15T12:23:54.671Z,21.06
2023-04-15T12:26:27.464Z,21.27
2023-04-15T12:29:19.220Z,21.15
2023-04-15T12:31:49.218Z,21.32
2023-04-15T12:34:17.394Z,21.38
2023-04-15T12:36:45.533Z,21.63
2023-04-15T12:39:13.539Z,21.83
2023-04-15T12:41:41.986Z,21.56
2023-04-15T12:44:10.440Z,20.95
2023-04-15T12:46:38.404Z,20.95
2023-04-15T12:49:06.381Z,20.90
2023-04-15T12:51:34.542Z,20.30
2023-04-15T12:54:02.699Z,19.77
2023-04-15T12:56:31.031Z,19.13
2023-04-15T12:58:58.915Z,19.86
2023-04-15T13:01:27.461Z,20.23
2023-04-15T13:03:56.021Z,20.31
2023-04-15T13:06:25.207Z,20.76
2023-04-15T13:08:58.470Z,20.90
2023-04-15T13:11:27.650Z,21.30
2023-04-15T13:13:56.974Z,21.43
2023-04-15T13:16:24.978Z,21.29
2023-04-15T13:18:52.957Z,21.33
2023-04-15T13:21:22.704Z,21.30
2023-04-15T13:23:53.257Z,21.26
2023-04-15T13:26:21.290Z,20.80
2023-04-15T13:28:49.310Z,21.08
2023-04-15T13:31:17.251Z,21.23
2023-04-15T13:33:45.563Z,20.97
2023-04-15T13:36:13.589Z,20.79
2023-04-15T13:38:41.494Z,20.62
2023-04-15T13:41:09.677Z,20.60
2023-04-15T13:43:38.309Z,20.47
2023-04-15T13:46:06.476Z,20.36
2023-04-15T13:48:36.537Z,20.51
2023-04-15T13:51:04.604Z,20.83
2023-04-15T13:53:37.916Z,21.00
2023-04-15T13:56:07.947Z,21.15
2023-04-15T13:58:37.081Z,20.96
2023-04-15T14:01:07.082Z,20.76
2023-04-15T14:03:37.080Z,20.67
2023-04-15T14:06:06.221Z,20.59
2023-04-15T14:08:34.516Z,20.68
2023-04-15T14:11:02.637Z,20.72
2023-04-15T14:13:31.310Z,20.78
2023-04-15T14:15:59.340Z,20.60
2023-04-15T14:18:27.392Z,20.63
2023-04-15T14:20:55.642Z,20.66
2023-04-15T14:23:24.635Z,20.68
2023-04-15T14:25:53.150Z,20.61
2023-04-15T14:28:21.051Z,20.34
2023-04-15T14:30:49.177Z,20.02
2023-04-15T14:33:17.896Z,20.16
2023-04-15T14:35:46.485Z,20.57
2023-04-15T14:38:14.603Z,20.57
2023-04-15T14:40:42.918Z,19.93
2023-04-15T14:43:10.941Z,20.24
2023-04-15T14:45:41.905Z,20.49
2023-04-15T14:48:12.754Z,20.51
2023-04-15T14:50:40.905Z,20.60
2023-04-15T14:53:09.259Z,20.48
2023-04-15T14:55:37.942Z,20.51
2023-04-15T14:58:08.273Z,20.45
2023-04-15T15:00:39.312Z,20.42
2023-04-15T15:03:13.083Z,20.70
2023-04-15T15:05:41.953Z,20.68
2023-04-15T15:08:10.312Z,20.39
2023-04-15T15:10:48.039Z,20.73
2023-04-15T15:13:18.874Z,20.74
2023-04-15T15:15:49.543Z,20.54
2023-04-15T15:18:19.403Z,20.52
2023-04-15T15:20:49.568Z,20.63
2023-04-15T15:23:17.579Z,20.46
2023-04-15T15:25:46.348Z,20.50
2023-04-15T15:28:15.572Z,20.31
2023-04-15T15:30:43.705Z,20.22
2023-04-15T15:33:11.729Z,20.09
2023-04-15T15:35:39.900Z,20.77
2023-04-15T15:38:08.696Z,20.53
2023-04-15T15:40:37.877Z,20.72
2023-04-15T15:43:05.785Z,21.05
2023-04-15T15:45:34.369Z,21.02
2023-04-15T15:48:02.648Z,20.88
2023-04-15T15:50:30.936Z,20.68
2023-04-15T15:52:59.014Z,20.59
2023-04-15T15:55:27.367Z,20.96
2023-04-15T15:57:55.564Z,21.02
2023-04-15T16:00:23.541Z,20.54
2023-04-15T16:05:29.370Z,20.82
2023-04-15T16:07:57.340Z,20.88
2023-04-15T16:10:25.653Z,20.29
2023-04-15T16:12:53.710Z,20.68
2023-04-15T16:15:23.338Z,20.72
2023-04-15T16:17:51.327Z,20.68
2023-04-15T16:20:19.567Z,20.95
2023-04-15T16:22:47.609Z,20.83
2023-04-15T16:25:15.963Z,20.83
2023-04-15T16:27:58.792Z,20.88
2023-04-15T16:30:28.908Z,20.36
2023-04-15T16:32:57.492Z,20.50
2023-04-15T16:35:25.464Z,20.77
2023-04-15T16:37:54.413Z,20.99
2023-04-15T16:40:22.687Z,20.91
2023-04-15T16:42:52.089Z,20.60
2023-04-15T16:45:20.335Z,20.82
2023-04-15T16:47:48.300Z,20.89
2023-04-15T16:50:16.796Z,20.88
2023-04-15T16:52:44.992Z,21.04
2023-04-15T16:55:12.932Z,21.27
2023-04-15T16:58:00.791Z,21.19
2023-04-15T17:00:29.376Z,21.21
2023-04-15T17:02:57.890Z,21.17
2023-04-15T17:05:27.785Z,21.32
2023-04-15T17:07:56.007Z,20.66
2023-04-15T17:10:24.298Z,21.20
2023-04-15T17:12:52.725Z,21.12
2023-04-15T17:15:20.663Z,21.04
2023-04-15T17:17:49.869Z,20.75
2023-04-15T17:20:18.117Z,20.93
2023-04-15T17:22:46.687Z,21.00
2023-04-15T17:25:15.073Z,20.86
2023-04-15T17:27:44.335Z,20.66
2023-04-15T17:30:12.325Z,20.43
2023-04-15T17:32:40.970Z,20.37
2023-04-15T17:35:09.507Z,20.92
2023-04-15T17:37:37.980Z,20.41
2023-04-15T17:40:08.726Z,20.71
2023-04-15T17:42:37.256Z,20.57
2023-04-15T17:45:06.325Z,20.62
2023-04-15T17:47:34.931Z,20.82
2023-04-15T17:50:03.612Z,21.09
2023-04-15T17:52:31.912Z,20.96
2023-04-15T17:54:59.914Z,20.74
2023-04-15T17:57:27.900Z,20.99
2023-04-15T17:59:55.873Z,21.21
2023-04-15T18:02:24.080Z,21.21
2023-04-15T18:04:52.570Z,21.27
2023-04-15T18:07:20.781Z,21.19
2023-04-15T18:09:50.769Z,21.29
2023-04-15T18:12:18.761Z,21.33
2023-04-15T18:14:46.906Z,21.46
2023-04-15T18:17:14.932Z,21.68
2023-04-15T18:19:43.629Z,21.68
2023-04-15T18:22:13.805Z,21.81
2023-04-15T18:24:41.953Z,21.60
2023-04-15T18:27:10.399Z,21.28
2023-04-15T18:29:39.041Z,21.11
2023-04-15T18:32:07.195Z,20.99
2023-04-15T18:34:35.436Z,20.92
2023-04-15T18:37:03.801Z,21.08
2023-04-15T18:39:31.978Z,21.37
2023-04-15T18:42:00.297Z,21.10
2023-04-15T18:44:28.769Z,21.11
2023-04-15T18:46:56.879Z,21.23
2023-04-15T18:49:27.290Z,20.84
2023-04-15T18:51:55.717Z,20.84
2023-04-15T18:54:23.797Z,20.50
2023-04-15T18:56:52.170Z,20.62
2023-04-15T18:59:29.991Z,20.74
2023-04-15T19:01:59.790Z,20.85
2023-04-15T19:04:29.332Z,20.60
2023-04-15T19:06:59.007Z,20.64
2023-04-15T19:09:28.507Z,20.63
2023-04-15T19:11:56.971Z,21.17
2023-04-15T19:14:25.083Z,20.98
2023-04-15T19:16:53.203Z,20.73
2023-04-15T19:19:21.298Z,21.23
2023-04-15T19:21:49.934Z,21.25
2023-04-15T19:24:18.340Z,21.40
2023-04-15T19:26:48.287Z,21.46
2023-04-15T19:29:16.376Z,21.19
2023-04-15T19:31:45.012Z,21.32
2023-04-15T19:34:13.045Z,21.04
2023-04-15T19:36:41.112Z,20.84
2023-04-15T19:39:09.675Z,20.88
2023-04-15T19:41:39.956Z,20.94
2023-04-15T19:44:08.206Z,21.29
2023-04-15T19:46:36.609Z,21.48
2023-04-15T19:49:04.933Z,21.74
2023-04-15T19:51:33.302Z,21.83
2023-04-15T19:54:01.281Z,21.72
2023-04-15T19:56:29.572Z,21.56
2023-04-15T19:58:59.732Z,21.60
2023-04-15T20:01:27.794Z,21.04
2023-04-15T20:03:56.094Z,21.24
2023-04-15T20:06:24.722Z,21.34
2023-04-15T20:08:53.632Z,21.89
2023-04-15T20:11:22.168Z,21.76
2023-04-15T20:13:50.766Z,21.79
2023-04-15T20:16:18.969Z,22.05
2023-04-15T20:18:46.899Z,21.99
2023-04-15T20:21:14.843Z,21.96
2023-04-15T20:23:42.991Z,22.06
2023-04-15T20:26:11.080Z,21.89
2023-04-15T20:28:39.439Z,21.35
2023-04-15T20:31:09.310Z,21.62
2023-04-15T20:33:37.643Z,21.53
2023-04-15T20:36:05.791Z,21.09
2023-04-15T20:38:34.561Z,21.41
2023-04-15T20:41:02.481Z,21.43
2023-04-15T20:43:31.236Z,21.63
2023-04-15T20:46:04.416Z,21.60
2023-04-15T20:48:41.595Z,21.60
2023-04-15T20:51:10.121Z,21.49
2023-04-15T20:53:38.178Z,21.34
2023-04-15T20:56:06.506Z,21.65
2023-04-15T20:58:34.407Z,21.79
2023-04-15T21:01:02.369Z,21.97
2023-04-15T21:03:30.680Z,21.84
2023-04-15T21:05:58.797Z,21.53
2023-04-15T21:08:29.659Z,21.62
2023-04-15T21:10:57.556Z,21.46
2023-04-15T21:13:25.633Z,21.84
2023-04-15T21:15:54.413Z,22.09
2023-04-15T21:18:23.417Z,21.48
2023-04-15T21:21:01.259Z,21.45
2023-04-15T21:23:30.109Z,21.26
2023-04-15T21:25:58.573Z,21.35
2023-04-15T21:28:28.156Z,21.43
2023-04-15T21:30:57.025Z,21.42
2023-04-15T21:33:25.318Z,21.69
2023-04-15T21:35:53.737Z,21.42
2023-04-15T21:38:23.351Z,21.35
2023-04-15T21:40:51.662Z,21.61
2023-04-15T21:43:22.966Z,21.87
2023-04-15T21:46:22.313Z,21.34
2023-04-15T21:48:41.942Z,21.67
2023-04-15T21:51:09.848Z,21.80
2023-04-15T21:53:37.774Z,22.08
2023-04-15T21:56:08.142Z,22.12
2023-04-15T21:58:36.283Z,22.10
2023-04-15T22:01:04.416Z,22.00
2023-04-15T22:03:34.242Z,21.79
2023-04-15T22:06:03.179Z,21.36
2023-04-15T22:08:36.046Z,21.27
2023-04-15T22:11:21.003Z,21.24
2023-04-15T22:13:49.081Z,21.24
2023-04-15T22:16:17.306Z,21.16
2023-04-15T22:18:45.494Z,21.11
2023-04-15T22:21:13.818Z,21.27
2023-04-15T22:23:41.764Z,21.45
2023-04-15T22:26:09.750Z,21.71
2023-04-15T22:28:37.942Z,21.15
2023-04-15T22:31:05.988Z,21.72
2023-04-15T22:33:35.173Z,21.41
2023-04-15T22:36:03.297Z,21.25
2023-04-15T22:38:31.585Z,21.50
2023-04-15T22:40:59.481Z,21.33
2023-04-15T22:43:27.945Z,21.62
2023-04-15T22:48:21.065Z,15.90
2023-04-15T22:50:49.479Z,17.56
2023-04-15T22:53:17.904Z,18.57
2023-04-15T22:55:48.723Z,18.52
2023-04-15T22:58:18.426Z,18.87
2023-04-15T23:00:46.776Z,18.91
2023-04-15T23:03:14.883Z,18.82
2023-04-15T23:05:45.068Z,18.88
2023-04-15T23:08:13.007Z,18.80
2023-04-15T23:10:44.703Z,19.25
2023-04-15T23:13:12.934Z,19.36
2023-04-15T23:15:40.981Z,19.37
2023-04-15T23:18:08.919Z,19.52
2023-04-15T23:20:36.912Z,19.79
2023-04-15T23:23:04.962Z,19.74
2023-04-15T23:25:33.109Z,19.78
2023-04-15T23:28:01.611Z,20.01
2023-04-15T23:30:30.133Z,19.95
2023-04-15T23:32:58.302Z,19.92
2023-04-15T23:35:27.254Z,20.15
2023-04-15T23:37:55.224Z,20.34
2023-04-15T23:40:23.134Z,20.25
2023-04-15T23:42:51.956Z,20.14
2023-04-15T23:45:19.849Z,19.85
2023-04-15T23:47:47.914Z,20.29
2023-04-15T23:50:16.061Z,20.19
2023-04-15T23:52:44.580Z,20.15
2023-04-15T23:55:12.650Z,20.16
2023-04-15T23:57:41.328Z,20.09
